sensor_id;sensor_type;location;lat;lon;timestamp;pressure;altitude;pressure_sealevel;temperature;humidity
72560;BME280;62987;52.382;9.752;2024-02-26T00:00:03;99552.88;;;3.49;100.00
72560;BME280;62987;52.382;9.752;2024-02-26T00:02:36;99550.19;;;3.50;100.00
72560;BME280;62987;52.382;9.752;2024-02-26T00:05:05;99547.56;;;3.50;100.00
72560;BME280;62987;52.382;9.752;2024-02-26T00:07:34;99557.28;;;3.48;100.00
72560;BME280;62987;52.382;9.752;2024-02-26T00:10:05;99557.91;;;3.56;100.00
72560;BME280;62987;52.382;9.752;2024-02-26T00:12:34;99545.13;;;3.44;100.00
72560;BME280;62987;52.382;9.752;2024-02-26T00:15:03;99548.72;;;3.42;100.00
72560;BME280;62987;52.382;9.752;2024-02-26T00:17:31;99545.06;;;3.46;100.00
72560;BME280;62987;52.382;9.752;2024-02-26T00:20:01;99546.84;;;3.45;100.00
72560;BME280;62987;52.382;9.752;2024-02-26T00:22:31;99545.22;;;3.41;100.00
72560;BME280;62987;52.382;9.752;2024-02-26T00:25:00;99541.69;;;3.42;100.00
72560;BME280;62987;52.382;9.752;2024-02-26T00:27:29;99537.25;;;3.44;100.00
72560;BME280;62987;52.382;9.752;2024-02-26T00:29:58;99544.13;;;3.48;100.00
72560;BME280;62987;52.382;9.752;2024-02-26T00:32:26;99543.13;;;3.52;100.00
72560;BME280;62987;52.382;9.752;2024-02-26T00:34:55;99530.22;;;3.45;100.00
72560;BME280;62987;52.382;9.752;2024-02-26T00:37:23;99535.59;;;3.42;100.00
72560;BME280;62987;52.382;9.752;2024-02-26T00:39:52;99533.16;;;3.36;100.00
72560;BME280;62987;52.382;9.752;2024-02-26T00:42:21;99530.53;;;3.36;100.00
72560;BME280;62987;52.382;9.752;2024-02-26T00:44:51;99533.00;;;3.40;100.00
72560;BME280;62987;52.382;9.752;2024-02-26T00:47:20;99534.09;;;3.33;100.00
72560;BME280;62987;52.382;9.752;2024-02-26T00:49:48;99523.81;;;3.26;100.00
72560;BME280;62987;52.382;9.752;2024-02-26T00:52:16;99537.44;;;3.38;100.00
72560;BME280;62987;52.382;9.752;2024-02-26T00:54:45;99524.22;;;3.41;100.00
72560;BME280;62987;52.382;9.752;2024-02-26T00:57:13;99531.00;;;3.48;100.00
72560;BME280;62987;52.382;9.752;2024-02-26T00:59:41;99528.66;;;3.39;100.00
72560;BME280;62987;52.382;9.752;2024-02-26T01:02:11;99529.66;;;3.35;100.00
72560;BME280;62987;52.382;9.752;2024-02-26T01:04:40;99525.94;;;3.42;100.00
72560;BME280;62987;52.382;9.752;2024-02-26T01:07:08;99530.28;;;3.43;100.00
72560;BME280;62987;52.382;9.752;2024-02-26T01:09:37;99528.03;;;3.31;100.00
72560;BME280;62987;52.382;9.752;2024-02-26T01:12:06;99533.16;;;3.36;100.00
72560;BME280;62987;52.382;9.752;2024-02-26T01:14:34;99540.91;;;3.39;100.00
72560;BME280;62987;52.382;9.752;2024-02-26T01:17:03;99539.06;;;3.42;100.00
72560;BME280;62987;52.382;9.752;2024-02-26T01:19:32;99536.34;;;3.45;100.00
72560;BME280;62987;52.382;9.752;2024-02-26T01:22:01;99538.25;;;3.40;100.00
72560;BME280;62987;52.382;9.752;2024-02-26T01:24:29;99539.16;;;3.39;100.00
72560;BME280;62987;52.382;9.752;2024-02-26T01:26:57;99542.41;;;3.47;100.00
72560;BME280;62987;52.382;9.752;2024-02-26T01:29:26;99539.50;;;3.56;100.00
72560;BME280;62987;52.382;9.752;2024-02-26T01:31:54;99536.88;;;3.56;100.00
72560;BME280;62987;52.382;9.752;2024-02-26T01:34:23;99540.03;;;3.66;100.00
72560;BME280;62987;52.382;9.752;2024-02-26T01:36:53;99537.97;;;3.76;100.00
72560;BME280;62987;52.382;9.752;2024-02-26T01:39:23;99541.59;;;3.72;100.00
72560;BME280;62987;52.382;9.752;2024-02-26T01:41:51;99532.06;;;3.69;100.00
72560;BME280;62987;52.382;9.752;2024-02-26T01:44:19;99539.75;;;3.75;100.00
72560;BME280;62987;52.382;9.752;2024-02-26T01:46:48;99544.16;;;3.75;100.00
72560;BME280;62987;52.382;9.752;2024-02-26T01:49:16;99536.13;;;3.78;100.00
72560;BME280;62987;52.382;9.752;2024-02-26T01:51:45;99538.03;;;3.74;100.00
72560;BME280;62987;52.382;9.752;2024-02-26T01:54:16;99538.81;;;3.76;100.00
72560;BME280;62987;52.382;9.752;2024-02-26T01:56:45;99543.16;;;3.77;100.00
72560;BME280;62987;52.382;9.752;2024-02-26T01:59:13;99538.78;;;3.78;100.00
72560;BME280;62987;52.382;9.752;2024-02-26T02:01:44;99528.38;;;3.75;100.00
72560;BME280;62987;52.382;9.752;2024-02-26T02:04:14;99545.66;;;3.82;100.00
72560;BME280;62987;52.382;9.752;2024-02-26T02:06:43;99539.63;;;3.78;100.00
72560;BME280;62987;52.382;9.752;2024-02-26T02:09:13;99544.59;;;3.87;100.00
72560;BME280;62987;52.382;9.752;2024-02-26T02:11:44;99540.28;;;3.85;100.00
72560;BME280;62987;52.382;9.752;2024-02-26T02:14:13;99535.03;;;3.85;100.00
72560;BME280;62987;52.382;9.752;2024-02-26T02:16:41;99547.44;;;3.81;100.00
72560;BME280;62987;52.382;9.752;2024-02-26T02:19:10;99543.81;;;3.84;100.00
72560;BME280;62987;52.382;9.752;2024-02-26T02:21:40;99545.22;;;3.69;100.00
72560;BME280;62987;52.382;9.752;2024-02-26T02:24:08;99545.22;;;3.69;100.00
72560;BME280;62987;52.382;9.752;2024-02-26T02:26:37;99550.72;;;3.61;100.00
72560;BME280;62987;52.382;9.752;2024-02-26T02:29:06;99549.69;;;3.66;100.00
72560;BME280;62987;52.382;9.752;2024-02-26T02:31:36;99539.50;;;3.56;100.00
72560;BME280;62987;52.382;9.752;2024-02-26T02:34:05;99546.34;;;3.60;100.00
72560;BME280;62987;52.382;9.752;2024-02-26T02:36:34;99552.31;;;3.66;100.00
72560;BME280;62987;52.382;9.752;2024-02-26T02:39:03;99545.59;;;3.57;100.00
72560;BME280;62987;52.382;9.752;2024-02-26T02:41:32;99543.91;;;3.56;100.00
72560;BME280;62987;52.382;9.752;2024-02-26T02:44:00;99536.03;;;3.54;100.00
72560;BME280;62987;52.382;9.752;2024-02-26T02:46:29;99548.75;;;3.68;100.00
72560;BME280;62987;52.382;9.752;2024-02-26T02:49:00;99542.31;;;3.77;100.00
72560;BME280;62987;52.382;9.752;2024-02-26T02:51:29;99547.75;;;3.71;100.00
72560;BME280;62987;52.382;9.752;2024-02-26T02:53:58;99552.16;;;3.70;100.00
72560;BME280;62987;52.382;9.752;2024-02-26T02:56:28;99550.72;;;3.61;100.00
72560;BME280;62987;52.382;9.752;2024-02-26T02:58:57;99552.38;;;3.64;100.00
72560;BME280;62987;52.382;9.752;2024-02-26T03:01:25;99542.13;;;3.56;100.00
72560;BME280;62987;52.382;9.752;2024-02-26T03:03:54;99555.97;;;3.61;100.00
72560;BME280;62987;52.382;9.752;2024-02-26T03:06:22;99562.13;;;3.60;100.00
72560;BME280;62987;52.382;9.752;2024-02-26T03:08:54;99561.13;;;3.65;100.00
72560;BME280;62987;52.382;9.752;2024-02-26T03:11:22;99554.88;;;3.69;100.00
72560;BME280;62987;52.382;9.752;2024-02-26T03:13:54;99556.69;;;3.67;100.00
72560;BME280;62987;52.382;9.752;2024-02-26T03:16:22;99556.50;;;3.71;100.00
72560;BME280;62987;52.382;9.752;2024-02-26T03:18:51;99561.06;;;3.66;100.00
72560;BME280;62987;52.382;9.752;2024-02-26T03:21:21;99554.88;;;3.69;100.00
72560;BME280;62987;52.382;9.752;2024-02-26T03:23:49;99557.75;;;3.61;100.00
72560;BME280;62987;52.382;9.752;2024-02-26T03:26:17;99557.69;;;3.63;100.00
72560;BME280;62987;52.382;9.752;2024-02-26T03:28:46;99566.47;;;3.61;100.00
72560;BME280;62987;52.382;9.752;2024-02-26T03:31:16;99560.53;;;3.56;100.00
72560;BME280;62987;52.382;9.752;2024-02-26T03:33:44;99566.56;;;3.58;100.00
72560;BME280;62987;52.382;9.752;2024-02-26T03:36:13;99565.78;;;3.56;100.00
72560;BME280;62987;52.382;9.752;2024-02-26T03:38:43;99570.06;;;3.59;100.00
72560;BME280;62987;52.382;9.752;2024-02-26T03:41:11;99563.94;;;3.58;100.00
72560;BME280;62987;52.382;9.752;2024-02-26T03:43:40;99563.84;;;3.61;100.00
72560;BME280;62987;52.382;9.752;2024-02-26T03:46:09;99560.75;;;3.49;100.00
72560;BME280;62987;52.382;9.752;2024-02-26T03:48:39;99565.78;;;3.56;100.00
72560;BME280;62987;52.382;9.752;2024-02-26T03:51:09;99567.22;;;3.65;100.00
72560;BME280;62987;52.382;9.752;2024-02-26T03:53:37;99561.00;;;3.69;100.00
72560;BME280;62987;52.382;9.752;2024-02-26T03:56:06;99563.94;;;3.58;100.00
72560;BME280;62987;52.382;9.752;2024-02-26T03:58:35;99561.81;;;3.70;100.00
72560;BME280;62987;52.382;9.752;2024-02-26T04:01:03;99561.97;;;3.65;100.00
72560;BME280;62987;52.382;9.752;2024-02-26T04:03:32;99566.25;;;3.69;100.00
72560;BME280;62987;52.382;9.752;2024-02-26T04:06:03;99563.53;;;3.71;100.00
72560;BME280;62987;52.382;9.752;2024-02-26T04:08:32;99564.41;;;3.71;100.00
72560;BME280;62987;52.382;9.752;2024-02-26T04:11:00;99562.63;;;3.72;100.00
72560;BME280;62987;52.382;9.752;2024-02-26T04:13:29;99572.16;;;3.76;100.00
72560;BME280;62987;52.382;9.752;2024-02-26T04:15:58;99566.38;;;3.65;100.00
72560;BME280;62987;52.382;9.752;2024-02-26T04:18:28;99574.19;;;3.68;100.00
72560;BME280;62987;52.382;9.752;2024-02-26T04:20:56;99564.16;;;3.79;100.00
72560;BME280;62987;52.382;9.752;2024-02-26T04:23:26;99575.28;;;3.87;100.00
72560;BME280;62987;52.382;9.752;2024-02-26T04:25:54;99580.34;;;3.93;100.00
72560;BME280;62987;52.382;9.752;2024-02-26T04:28:23;99568.84;;;3.95;100.00
72560;BME280;62987;52.382;9.752;2024-02-26T04:30:53;99584.63;;;3.95;100.00
72560;BME280;62987;52.382;9.752;2024-02-26T04:33:21;99582.13;;;3.92;100.00
72560;BME280;62987;52.382;9.752;2024-02-26T04:35:50;99582.97;;;3.93;100.00
72560;BME280;62987;52.382;9.752;2024-02-26T04:38:18;99591.16;;;3.84;100.00
72560;BME280;62987;52.382;9.752;2024-02-26T04:40:48;99595.81;;;4.02;100.00
72560;BME280;62987;52.382;9.752;2024-02-26T04:43:16;99599.03;;;3.84;100.00
72560;BME280;62987;52.382;9.752;2024-02-26T04:45:46;99597.97;;;3.89;100.00
72560;BME280;62987;52.382;9.752;2024-02-26T04:48:14;99599.66;;;3.92;100.00
72560;BME280;62987;52.382;9.752;2024-02-26T04:50:43;99605.63;;;3.97;100.00
72560;BME280;62987;52.382;9.752;2024-02-26T04:53:11;99604.00;;;3.93;100.00
72560;BME280;62987;52.382;9.752;2024-02-26T04:55:40;99606.84;;;3.87;100.00
72560;BME280;62987;52.382;9.752;2024-02-26T04:58:10;99601.63;;;3.85;100.00
72560;BME280;62987;52.382;9.752;2024-02-26T05:00:38;99617.25;;;3.90;100.00
72560;BME280;62987;52.382;9.752;2024-02-26T05:03:07;99616.34;;;3.91;100.00
72560;BME280;62987;52.382;9.752;2024-02-26T05:05:40;99618.78;;;3.97;100.00
72560;BME280;62987;52.382;9.752;2024-02-26T05:08:09;99618.78;;;3.97;100.00
72560;BME280;62987;52.382;9.752;2024-02-26T05:10:37;99627.03;;;3.86;100.00
72560;BME280;62987;52.382;9.752;2024-02-26T05:13:09;99630.94;;;4.01;100.00
72560;BME280;62987;52.382;9.752;2024-02-26T05:15:38;99632.16;;;3.89;100.00
72560;BME280;62987;52.382;9.752;2024-02-26T05:18:07;99639.22;;;3.89;100.00
72560;BME280;62987;52.382;9.752;2024-02-26T05:20:36;99636.59;;;3.89;100.00
72560;BME280;62987;52.382;9.752;2024-02-26T05:23:05;99634.59;;;3.95;100.00
72560;BME280;62987;52.382;9.752;2024-02-26T05:25:33;99630.06;;;4.00;100.00
72560;BME280;62987;52.382;9.752;2024-02-26T05:28:02;99629.22;;;4.00;100.00
72560;BME280;62987;52.382;9.752;2024-02-26T05:30:32;99631.97;;;3.95;100.00
72560;BME280;62987;52.382;9.752;2024-02-26T05:33:00;99636.41;;;3.95;100.00
72560;BME280;62987;52.382;9.752;2024-02-26T05:35:29;99638.91;;;3.98;100.00
72560;BME280;62987;52.382;9.752;2024-02-26T05:37:57;99639.72;;;4.00;100.00
72560;BME280;62987;52.382;9.752;2024-02-26T05:40:25;99628.22;;;4.02;100.00
72560;BME280;62987;52.382;9.752;2024-02-26T05:42:54;99637.72;;;4.08;100.00
72560;BME280;62987;52.382;9.752;2024-02-26T05:45:22;99636.00;;;4.07;100.00
72560;BME280;62987;52.382;9.752;2024-02-26T05:47:52;99637.09;;;4.00;100.00
72560;BME280;62987;52.382;9.752;2024-02-26T05:50:23;99634.09;;;4.11;100.00
72560;BME280;62987;52.382;9.752;2024-02-26T05:52:52;99632.13;;;4.17;100.00
72560;BME280;62987;52.382;9.752;2024-02-26T05:55:21;99636.00;;;4.07;100.00
72560;BME280;62987;52.382;9.752;2024-02-26T05:57:49;99644.47;;;4.15;100.00
72560;BME280;62987;52.382;9.752;2024-02-26T06:00:18;99648.81;;;4.16;100.00
72560;BME280;62987;52.382;9.752;2024-02-26T06:02:46;99649.81;;;4.14;100.00
72560;BME280;62987;52.382;9.752;2024-02-26T06:05:16;99654.81;;;4.21;100.00
72560;BME280;62987;52.382;9.752;2024-02-26T06:07:45;99654.03;;;4.18;100.00
72560;BME280;62987;52.382;9.752;2024-02-26T06:10:13;99653.63;;;4.30;100.00
72560;BME280;62987;52.382;9.752;2024-02-26T06:12:42;99656.91;;;4.36;100.00
72560;BME280;62987;52.382;9.752;2024-02-26T06:15:10;99659.66;;;4.33;100.00
72560;BME280;62987;52.382;9.752;2024-02-26T06:17:39;99651.66;;;4.36;100.00
72560;BME280;62987;52.382;9.752;2024-02-26T06:20:08;99650.31;;;4.25;100.00
72560;BME280;62987;52.382;9.752;2024-02-26T06:22:41;99672.41;;;4.46;100.00
72560;BME280;62987;52.382;9.752;2024-02-26T06:25:10;99664.59;;;4.42;100.00
72560;BME280;62987;52.382;9.752;2024-02-26T06:27:38;99671.59;;;4.43;100.00
72560;BME280;62987;52.382;9.752;2024-02-26T06:30:07;99671.81;;;4.37;100.00
72560;BME280;62987;52.382;9.752;2024-02-26T06:35:58;99675.13;;;4.42;100.00
72560;BME280;62987;52.382;9.752;2024-02-26T06:38:27;99683.94;;;4.41;100.00
72560;BME280;62987;52.382;9.752;2024-02-26T06:40:55;99684.59;;;4.48;100.00
72560;BME280;62987;52.382;9.752;2024-02-26T06:43:24;99686.97;;;4.56;100.00
72560;BME280;62987;52.382;9.752;2024-02-26T06:45:52;99697.09;;;4.68;100.00
72560;BME280;62987;52.382;9.752;2024-02-26T06:48:22;99681.81;;;4.53;100.00
72560;BME280;62987;52.382;9.752;2024-02-26T06:51:52;99698.81;;;4.69;100.00
72560;BME280;62987;52.382;9.752;2024-02-26T06:54:21;99708.34;;;4.73;100.00
72560;BME280;62987;52.382;9.752;2024-02-26T06:56:49;99713.75;;;4.93;100.00
72560;BME280;62987;52.382;9.752;2024-02-26T06:59:18;99724.38;;;4.92;100.00
72560;BME280;62987;52.382;9.752;2024-02-26T07:01:47;99715.47;;;4.94;100.00
72560;BME280;62987;52.382;9.752;2024-02-26T07:04:15;99732.19;;;4.93;100.00
72560;BME280;62987;52.382;9.752;2024-02-26T07:09:24;99736.25;;;5.03;100.00
72560;BME280;62987;52.382;9.752;2024-02-26T07:11:53;99737.09;;;5.04;100.00
72560;BME280;62987;52.382;9.752;2024-02-26T07:14:24;99740.44;;;5.09;100.00
72560;BME280;62987;52.382;9.752;2024-02-26T07:16:52;99740.97;;;5.18;100.00
72560;BME280;62987;52.382;9.752;2024-02-26T07:19:21;99743.44;;;5.23;100.00
72560;BME280;62987;52.382;9.752;2024-02-26T07:21:49;99744.44;;;5.19;100.00
72560;BME280;62987;52.382;9.752;2024-02-26T07:24:18;99751.94;;;5.31;100.00
72560;BME280;62987;52.382;9.752;2024-02-26T07:26:48;99750.28;;;5.29;100.00
72560;BME280;62987;52.382;9.752;2024-02-26T07:32:08;99747.09;;;5.44;100.00
72560;BME280;62987;52.382;9.752;2024-02-26T07:34:37;99751.66;;;5.39;100.00
72560;BME280;62987;52.382;9.752;2024-02-26T07:37:09;99744.28;;;5.48;100.00
72560;BME280;62987;52.382;9.752;2024-02-26T07:39:37;99745.72;;;5.57;100.00
72560;BME280;62987;52.382;9.752;2024-02-26T07:42:05;99747.03;;;5.69;100.00
72560;BME280;62987;52.382;9.752;2024-02-26T07:44:40;99740.09;;;5.66;100.00
72560;BME280;62987;52.382;9.752;2024-02-26T07:47:11;99741.00;;;5.65;100.00
72560;BME280;62987;52.382;9.752;2024-02-26T07:49:40;99747.09;;;5.67;100.00
72560;BME280;62987;52.382;9.752;2024-02-26T07:52:09;99740.03;;;5.68;100.00
72560;BME280;62987;52.382;9.752;2024-02-26T07:54:40;99740.66;;;5.74;100.00
72560;BME280;62987;52.382;9.752;2024-02-26T07:57:09;99747.78;;;5.95;100.00
72560;BME280;62987;52.382;9.752;2024-02-26T07:59:37;99749.72;;;5.90;100.00
72560;BME280;62987;52.382;9.752;2024-02-26T08:02:05;99744.91;;;6.01;100.00
72560;BME280;62987;52.382;9.752;2024-02-26T08:04:36;99747.25;;;6.09;100.00
72560;BME280;62987;52.382;9.752;2024-02-26T08:07:06;99756.63;;;6.16;100.00
72560;BME280;62987;52.382;9.752;2024-02-26T08:09:34;99747.38;;;6.28;100.00
72560;BME280;62987;52.382;9.752;2024-02-26T08:12:04;99742.59;;;6.37;100.00
72560;BME280;62987;52.382;9.752;2024-02-26T08:14:35;99750.75;;;6.53;100.00
72560;BME280;62987;52.382;9.752;2024-02-26T08:17:04;99746.78;;;6.21;100.00
72560;BME280;62987;52.382;9.752;2024-02-26T08:19:32;99753.91;;;6.41;100.00
72560;BME280;62987;52.382;9.752;2024-02-26T08:22:04;99770.47;;;6.45;100.00
72560;BME280;62987;52.382;9.752;2024-02-26T08:24:32;99762.50;;;6.46;100.00
72560;BME280;62987;52.382;9.752;2024-02-26T08:27:01;99755.84;;;6.58;100.00
72560;BME280;62987;52.382;9.752;2024-02-26T08:29:29;99758.16;;;6.65;100.00
72560;BME280;62987;52.382;9.752;2024-02-26T08:31:58;99751.38;;;6.60;100.00
72560;BME280;62987;52.382;9.752;2024-02-26T08:34:26;99738.19;;;6.80;100.00
72560;BME280;62987;52.382;9.752;2024-02-26T08:36:55;99754.09;;;6.78;100.00
72560;BME280;62987;52.382;9.752;2024-02-26T08:39:25;99749.69;;;6.99;100.00
72560;BME280;62987;52.382;9.752;2024-02-26T08:41:53;99752.78;;;7.09;100.00
72560;BME280;62987;52.382;9.752;2024-02-26T08:44:22;99748.94;;;7.16;100.00
72560;BME280;62987;52.382;9.752;2024-02-26T08:46:50;99747.50;;;7.09;100.00
72560;BME280;62987;52.382;9.752;2024-02-26T08:49:20;99752.31;;;7.19;100.00
72560;BME280;62987;52.382;9.752;2024-02-26T08:51:50;99758.34;;;7.23;100.00
72560;BME280;62987;52.382;9.752;2024-02-26T08:54:18;99757.25;;;7.27;100.00
72560;BME280;62987;52.382;9.752;2024-02-26T08:56:48;99752.75;;;7.49;100.00
72560;BME280;62987;52.382;9.752;2024-02-26T08:59:17;99761.28;;;7.56;100.00
72560;BME280;62987;52.382;9.752;2024-02-26T09:01:49;99767.41;;;7.77;100.00
72560;BME280;62987;52.382;9.752;2024-02-26T09:04:17;99749.91;;;7.54;100.00
72560;BME280;62987;52.382;9.752;2024-02-26T09:06:46;99765.09;;;7.69;100.00
72560;BME280;62987;52.382;9.752;2024-02-26T09:09:16;99762.44;;;7.69;100.00
72560;BME280;62987;52.382;9.752;2024-02-26T09:11:44;99760.50;;;7.73;100.00
72560;BME280;62987;52.382;9.752;2024-02-26T09:14:14;99758.25;;;7.84;100.00
72560;BME280;62987;52.382;9.752;2024-02-26T09:16:43;99760.50;;;7.73;100.00
72560;BME280;62987;52.382;9.752;2024-02-26T09:19:12;99764.66;;;7.78;100.00
72560;BME280;62987;52.382;9.752;2024-02-26T09:21:42;99769.94;;;7.78;100.00
72560;BME280;62987;52.382;9.752;2024-02-26T09:24:11;99753.66;;;7.87;100.00
72560;BME280;62987;52.382;9.752;2024-02-26T09:26:40;99753.94;;;8.00;100.00
72560;BME280;62987;52.382;9.752;2024-02-26T09:29:08;99761.31;;;7.93;100.00
72560;BME280;62987;52.382;9.752;2024-02-26T09:31:38;99765.53;;;8.16;100.00
72560;BME280;62987;52.382;9.752;2024-02-26T09:34:08;99761.66;;;8.04;100.00
72560;BME280;62987;52.382;9.752;2024-02-26T09:36:36;99765.66;;;8.13;100.00
72560;BME280;62987;52.382;9.752;2024-02-26T09:39:05;99774.81;;;8.25;100.00
72560;BME280;62987;52.382;9.752;2024-02-26T09:41:34;99774.84;;;8.06;100.00
72560;BME280;62987;52.382;9.752;2024-02-26T09:44:04;99775.69;;;8.25;100.00
72560;BME280;62987;52.382;9.752;2024-02-26T09:46:33;99780.13;;;8.43;100.00
72560;BME280;62987;52.382;9.752;2024-02-26T09:49:03;99777.84;;;8.55;100.00
72560;BME280;62987;52.382;9.752;2024-02-26T09:51:33;99786.28;;;8.44;100.00
72560;BME280;62987;52.382;9.752;2024-02-26T09:54:02;99785.88;;;8.34;100.00
72560;BME280;62987;52.382;9.752;2024-02-26T09:56:34;99781.56;;;8.51;100.00
72560;BME280;62987;52.382;9.752;2024-02-26T09:59:13;99780.03;;;8.64;100.00
72560;BME280;62987;52.382;9.752;2024-02-26T10:01:44;99794.25;;;8.80;100.00
72560;BME280;62987;52.382;9.752;2024-02-26T10:04:15;99801.72;;;8.72;100.00
72560;BME280;62987;52.382;9.752;2024-02-26T10:06:45;99792.38;;;8.82;100.00
72560;BME280;62987;52.382;9.752;2024-02-26T10:09:14;99807.50;;;8.80;100.00
72560;BME280;62987;52.382;9.752;2024-02-26T10:11:43;99804.38;;;8.89;100.00
72560;BME280;62987;52.382;9.752;2024-02-26T10:14:12;99804.94;;;8.96;100.00
72560;BME280;62987;52.382;9.752;2024-02-26T10:16:41;99812.22;;;9.09;100.00
72560;BME280;62987;52.382;9.752;2024-02-26T10:19:26;99812.47;;;9.39;100.00
72560;BME280;62987;52.382;9.752;2024-02-26T10:21:56;99818.63;;;9.22;100.00
72560;BME280;62987;52.382;9.752;2024-02-26T10:24:26;99827.59;;;9.37;100.00
72560;BME280;62987;52.382;9.752;2024-02-26T10:26:55;99820.56;;;9.36;100.00
72560;BME280;62987;52.382;9.752;2024-02-26T10:29:24;99823.91;;;9.57;100.00
72560;BME280;62987;52.382;9.752;2024-02-26T10:31:53;99831.78;;;9.41;100.00
72560;BME280;62987;52.382;9.752;2024-02-26T10:34:22;99838.03;;;9.40;100.00
72560;BME280;62987;52.382;9.752;2024-02-26T10:36:53;99827.81;;;9.50;100.00
72560;BME280;62987;52.382;9.752;2024-02-26T10:39:22;99834.53;;;9.57;100.00
72560;BME280;62987;52.382;9.752;2024-02-26T10:41:50;99837.81;;;9.45;100.00
72560;BME280;62987;52.382;9.752;2024-02-26T10:44:19;99839.06;;;9.72;100.00
72560;BME280;62987;52.382;9.752;2024-02-26T10:46:48;99839.38;;;9.49;100.00
72560;BME280;62987;52.382;9.752;2024-02-26T10:49:18;99827.81;;;9.50;100.00
72560;BME280;62987;52.382;9.752;2024-02-26T10:51:54;99844.28;;;9.22;100.00
72560;BME280;62987;52.382;9.752;2024-02-26T10:54:25;99850.47;;;9.57;100.00
72560;BME280;62987;52.382;9.752;2024-02-26T10:56:56;99835.78;;;9.50;100.00
72560;BME280;62987;52.382;9.752;2024-02-26T10:59:26;99844.28;;;9.56;100.00
72560;BME280;62987;52.382;9.752;2024-02-26T11:01:55;99846.06;;;9.73;100.00
72560;BME280;62987;52.382;9.752;2024-02-26T11:04:24;99858.25;;;9.77;100.00
72560;BME280;62987;52.382;9.752;2024-02-26T11:06:57;99854.75;;;9.92;100.00
72560;BME280;62987;52.382;9.752;2024-02-26T11:09:26;99847.84;;;10.06;100.00
72560;BME280;62987;52.382;9.752;2024-02-26T11:11:57;99850.69;;;10.02;100.00
72560;BME280;62987;52.382;9.752;2024-02-26T11:14:29;99856.03;;;9.85;100.00
72560;BME280;62987;52.382;9.752;2024-02-26T11:16:58;99850.72;;;9.85;100.00
72560;BME280;62987;52.382;9.752;2024-02-26T11:19:28;99840.25;;;10.15;100.00
72560;BME280;62987;52.382;9.752;2024-02-26T11:22:02;99841.16;;;9.98;100.00
72560;BME280;62987;52.382;9.752;2024-02-26T11:24:47;99839.09;;;9.88;100.00
72560;BME280;62987;52.382;9.752;2024-02-26T11:27:17;99847.84;;;9.90;100.00
72560;BME280;62987;52.382;9.752;2024-02-26T11:29:50;99830.47;;;10.33;100.00
72560;BME280;62987;52.382;9.752;2024-02-26T11:32:20;99845.13;;;10.07;100.00
72560;BME280;62987;52.382;9.752;2024-02-26T11:34:49;99836.38;;;10.38;100.00
72560;BME280;62987;52.382;9.752;2024-02-26T11:37:20;99842.47;;;10.40;100.00
72560;BME280;62987;52.382;9.752;2024-02-26T11:39:51;99836.13;;;10.43;100.00
72560;BME280;62987;52.382;9.752;2024-02-26T11:42:23;99834.41;;;10.41;100.00
72560;BME280;62987;52.382;9.752;2024-02-26T11:44:52;99837.66;;;10.47;100.00
72560;BME280;62987;52.382;9.752;2024-02-26T11:47:23;99831.50;;;10.46;100.00
72560;BME280;62987;52.382;9.752;2024-02-26T11:49:51;99835.84;;;10.78;100.00
72560;BME280;62987;52.382;9.752;2024-02-26T11:52:21;99834.56;;;11.01;100.00
72560;BME280;62987;52.382;9.752;2024-02-26T11:54:51;99835.84;;;10.94;100.00
72560;BME280;62987;52.382;9.752;2024-02-26T11:57:26;99834.56;;;11.01;100.00
72560;BME280;62987;52.382;9.752;2024-02-26T12:00:03;99830.75;;;11.21;100.00
72560;BME280;62987;52.382;9.752;2024-02-26T12:02:45;99843.44;;;11.16;100.00
72560;BME280;62987;52.382;9.752;2024-02-26T12:05:15;99840.03;;;11.14;100.00
72560;BME280;62987;52.382;9.752;2024-02-26T12:07:47;99839.69;;;11.64;100.00
72560;BME280;62987;52.382;9.752;2024-02-26T12:10:21;99843.78;;;11.70;100.00
72560;BME280;62987;52.382;9.752;2024-02-26T12:12:54;99846.59;;;11.52;100.00
72560;BME280;62987;52.382;9.752;2024-02-26T12:15:30;99847.34;;;11.40;100.00
72560;BME280;62987;52.382;9.752;2024-02-26T12:18:01;99852.16;;;11.34;100.00
72560;BME280;62987;52.382;9.752;2024-02-26T12:20:30;99851.03;;;11.08;100.00
72560;BME280;62987;52.382;9.752;2024-02-26T12:23:02;99850.69;;;11.28;100.00
72560;BME280;62987;52.382;9.752;2024-02-26T12:25:31;99864.06;;;11.12;100.00
72560;BME280;62987;52.382;9.752;2024-02-26T12:28:00;99854.56;;;11.22;100.00
72560;BME280;62987;52.382;9.752;2024-02-26T12:30:30;99864.38;;;11.22;100.00
72560;BME280;62987;52.382;9.752;2024-02-26T12:33:00;99870.81;;;11.48;100.00
72560;BME280;62987;52.382;9.752;2024-02-26T12:35:30;99865.34;;;11.95;100.00
72560;BME280;62987;52.382;9.752;2024-02-26T12:38:01;99867.13;;;11.80;100.00
72560;BME280;62987;52.382;9.752;2024-02-26T12:40:32;99858.50;;;12.05;100.00
72560;BME280;62987;52.382;9.752;2024-02-26T12:43:00;99856.09;;;12.00;100.00
72560;BME280;62987;52.382;9.752;2024-02-26T12:45:29;99850.19;;;12.52;100.00
72560;BME280;62987;52.382;9.752;2024-02-26T12:47:59;99851.50;;;12.59;100.00
72560;BME280;62987;52.382;9.752;2024-02-26T12:50:28;99862.44;;;12.83;100.00
72560;BME280;62987;52.382;9.752;2024-02-26T12:52:56;99858.22;;;12.79;100.00
72560;BME280;62987;52.382;9.752;2024-02-26T12:55:26;99875.13;;;12.65;100.00
72560;BME280;62987;52.382;9.752;2024-02-26T12:57:55;99867.31;;;12.62;100.00
72560;BME280;62987;52.382;9.752;2024-02-26T13:00:25;99880.09;;;12.57;100.00
72560;BME280;62987;52.382;9.752;2024-02-26T13:02:56;99879.34;;;12.55;100.00
72560;BME280;62987;52.382;9.752;2024-02-26T13:05:26;99877.78;;;12.65;100.00
72560;BME280;62987;52.382;9.752;2024-02-26T13:07:55;99880.00;;;12.59;100.00
72560;BME280;62987;52.382;9.752;2024-02-26T13:10:23;99890.84;;;12.70;100.00
72560;BME280;62987;52.382;9.752;2024-02-26T13:12:53;99890.47;;;12.19;100.00
72560;BME280;62987;52.382;9.752;2024-02-26T13:15:22;99899.97;;;11.95;100.00
72560;BME280;62987;52.382;9.752;2024-02-26T13:17:51;99891.22;;;11.93;100.00